Time;durP1;ratioP1;P1;durP2;ratioP2;P2;SDS_P1;SDS_P2;PMS_P1;PMS_P2;Temp;Humidity;BMP_temperature;BMP_pressure;BME280_temperature;BME280_humidity;BME280_pressure;Samples;Min_cycle;Max_cycle;Signal;HPM_P1;HPM_P2
2023/08/26 00:00:53;;;;;;;0.57;0.52;;;15.30;99.90;;;;;;5009624;28;20029;-79
2023/08/26 00:03:19;;;;;;;0.55;0.35;;;15.40;99.90;;;;;;5010382;28;20022;-78
2023/08/26 00:05:45;;;;;;;0.17;0.17;;;15.40;99.90;;;;;;4991972;28;20080;-78
2023/08/26 00:08:11;;;;;;;0.90;0.50;;;15.40;99.90;;;;;;4990538;28;20043;-79
2023/08/26 00:10:37;;;;;;;0.32;0.32;;;15.40;99.90;;;;;;4995487;28;20036;-80
2023/08/26 00:13:03;;;;;;;2.22;1.08;;;15.50;99.90;;;;;;4996965;28;20026;-79
2023/08/26 00:15:28;;;;;;;0.77;0.60;;;15.40;99.90;;;;;;5002258;28;20038;-80
2023/08/26 00:17:54;;;;;;;0.20;0.10;;;15.50;99.90;;;;;;4999448;28;20080;-78
2023/08/26 00:20:21;;;;;;;4.63;1.05;;;15.60;99.90;;;;;;5020087;28;20040;-79
2023/08/26 00:22:47;;;;;;;0.25;0.25;;;15.40;99.90;;;;;;5004700;28;20092;-79
2023/08/26 00:25:13;;;;;;;8.15;0.90;;;15.20;99.90;;;;;;5007851;28;20029;-79
2023/08/26 00:27:39;;;;;;;2.85;0.75;;;15.30;99.90;;;;;;5008927;28;20030;-80
2023/08/26 00:30:06;;;;;;;0.10;0.10;;;15.30;99.90;;;;;;5000073;28;20027;-78
2023/08/26 00:32:31;;;;;;;2.58;0.68;;;15.30;99.90;;;;;;4997441;28;20026;-78
2023/08/26 00:34:57;;;;;;;2.20;1.52;;;15.20;99.90;;;;;;5009324;28;20026;-79
2023/08/26 00:37:23;;;;;;;0.10;0.10;;;15.10;99.90;;;;;;5008295;28;20038;-76
2023/08/26 00:39:49;;;;;;;10.05;0.73;;;15.10;99.90;;;;;;5007243;28;20030;-78
2023/08/26 00:42:15;;;;;;;0.10;0.10;;;15.10;99.90;;;;;;5002231;28;20076;-79
2023/08/26 00:44:41;;;;;;;0.50;0.50;;;15.00;99.90;;;;;;5008802;28;20026;-78
2023/08/26 00:47:07;;;;;;;1.17;0.80;;;15.00;99.90;;;;;;4993625;28;20539;-78
2023/08/26 00:49:34;;;;;;;4.03;1.27;;;15.10;99.90;;;;;;4997148;28;20033;-79
2023/08/26 00:52:00;;;;;;;0.47;0.47;;;15.10;99.90;;;;;;4993278;28;20023;-78
2023/08/26 00:54:27;;;;;;;1.48;1.38;;;15.00;99.90;;;;;;4995398;28;20044;-78
2023/08/26 00:56:54;;;;;;;0.93;0.75;;;15.00;99.90;;;;;;4996945;28;20058;-78
2023/08/26 00:59:20;;;;;;;2.45;0.95;;;14.80;99.90;;;;;;4985906;28;20112;-79
2023/08/26 01:01:48;;;;;;;0.63;0.63;;;14.90;99.90;;;;;;4986220;28;20026;-80
2023/08/26 01:04:14;;;;;;;0.85;0.80;;;14.90;99.90;;;;;;4996962;28;20039;-78
2023/08/26 01:06:39;;;;;;;0.30;0.30;;;14.80;99.90;;;;;;4962765;28;20117;-78
2023/08/26 01:09:05;;;;;;;0.98;0.57;;;14.90;99.90;;;;;;5003631;28;20104;-78
2023/08/26 01:12:21;;;;;;;1.20;0.40;;;14.90;99.90;;;;;;4993613;28;20105;-85
2023/08/26 01:15:09;;;;;;;0.80;0.60;;;14.90;99.90;;;;;;4952215;28;20045;-81
2023/08/26 01:17:35;;;;;;;1.20;0.75;;;14.70;99.90;;;;;;4996064;28;20062;-78
2023/08/26 01:20:03;;;;;;;0.60;0.40;;;14.80;99.90;;;;;;4995987;28;20505;-79
2023/08/26 01:22:32;;;;;;;0.43;0.43;;;14.80;99.90;;;;;;4995707;28;20037;-80
2023/08/26 01:24:59;;;;;;;0.30;0.30;;;14.80;99.90;;;;;;4975287;28;20533;-81
2023/08/26 01:27:25;;;;;;;0.45;0.45;;;14.60;99.90;;;;;;4989422;28;20033;-78
2023/08/26 01:29:51;;;;;;;3.15;1.38;;;14.60;99.90;;;;;;4975529;28;20022;-79
2023/08/26 01:32:52;;;;;;;0.70;0.70;;;14.60;99.90;;;;;;4985885;28;20552;-80
2023/08/26 01:35:25;;;;;;;0.68;0.68;;;14.60;99.90;;;;;;4975406;28;20046;-79
2023/08/26 01:37:53;;;;;;;1.13;0.88;;;14.60;99.90;;;;;;4989303;28;20034;-79
2023/08/26 01:40:21;;;;;;;0.43;0.43;;;14.70;99.90;;;;;;4978525;28;20057;-79
2023/08/26 01:42:48;;;;;;;0.52;0.50;;;14.60;99.90;;;;;;4994295;28;20078;-77
2023/08/26 01:45:14;;;;;;;0.20;0.20;;;14.50;99.90;;;;;;4978355;28;20026;-79
2023/08/26 01:47:41;;;;;;;0.30;0.30;;;14.50;99.90;;;;;;4994648;28;20041;-80
2023/08/26 01:50:07;;;;;;;7.75;1.45;;;14.60;99.90;;;;;;4995463;28;20027;-81
2023/08/26 01:52:32;;;;;;;1.30;0.70;;;14.40;99.90;;;;;;4995416;28;20037;-80
2023/08/26 01:54:58;;;;;;;0.10;0.10;;;14.40;99.90;;;;;;4977851;28;20399;-80
2023/08/26 01:57:24;;;;;;;0.10;0.10;;;14.40;99.90;;;;;;4974837;28;20166;-79
2023/08/26 01:59:50;;;;;;;1.65;0.50;;;14.60;99.90;;;;;;4988363;28;20129;-80
2023/08/26 02:02:16;;;;;;;0.10;0.10;;;14.40;99.90;;;;;;4958782;28;20109;-78
2023/08/26 02:04:42;;;;;;;2.50;0.63;;;14.40;99.90;;;;;;4966908;28;20479;-78
2023/08/26 02:07:11;;;;;;;1.45;1.35;;;14.30;99.90;;;;;;4972436;28;20408;-79
2023/08/26 02:09:37;;;;;;;1.40;0.80;;;14.30;99.90;;;;;;4977565;28;20022;-79
2023/08/26 02:12:03;;;;;;;0.47;0.40;;;14.40;99.90;;;;;;4993839;28;20034;-77
2023/08/26 02:14:29;;;;;;;0.10;0.10;;;14.40;99.90;;;;;;4977590;28;20033;-78
2023/08/26 02:16:55;;;;;;;0.60;0.40;;;14.40;99.90;;;;;;4994042;28;20384;-77
2023/08/26 02:19:20;;;;;;;0.30;0.30;;;14.30;99.90;;;;;;4994886;28;20034;-79
2023/08/26 02:21:46;;;;;;;0.30;0.30;;;14.40;99.90;;;;;;4974216;28;20038;-79
2023/08/26 02:24:12;;;;;;;4.75;0.82;;;14.40;99.90;;;;;;4988285;28;20023;-80
2023/08/26 02:26:38;;;;;;;1.20;0.57;;;14.30;99.90;;;;;;4977285;28;20060;-80
2023/08/26 02:29:04;;;;;;;0.13;0.13;;;14.40;99.90;;;;;;4977464;28;20030;-79
2023/08/26 02:31:30;;;;;;;0.73;0.68;;;14.30;99.90;;;;;;4977460;28;20081;-79
2023/08/26 02:33:56;;;;;;;0.20;0.20;;;14.40;99.90;;;;;;4994792;28;20057;-78
2023/08/26 02:36:22;;;;;;;0.10;0.10;;;14.40;99.90;;;;;;4994459;28;20030;-79
2023/08/26 02:38:48;;;;;;;3.78;0.32;;;14.30;99.90;;;;;;4977399;28;20022;-79
2023/08/26 02:41:14;;;;;;;24.55;1.77;;;14.40;99.90;;;;;;4976876;28;20394;-78
2023/08/26 02:43:40;;;;;;;0.47;0.35;;;14.30;99.90;;;;;;4977866;28;20041;-78
2023/08/26 02:46:06;;;;;;;1.17;0.57;;;14.30;99.90;;;;;;4984060;28;20112;-77
2023/08/26 02:48:32;;;;;;;0.10;0.10;;;14.20;99.90;;;;;;4985440;28;20105;-78
2023/08/26 02:50:59;;;;;;;0.10;0.10;;;14.20;99.90;;;;;;4993125;28;20020;-77
2023/08/26 02:53:26;;;;;;;0.40;0.40;;;14.30;99.90;;;;;;4990568;28;20025;-79
2023/08/26 02:55:53;;;;;;;0.10;0.10;;;14.20;99.90;;;;;;4995594;28;20092;-79
2023/08/26 02:58:20;;;;;;;0.10;0.10;;;14.30;99.90;;;;;;4981784;28;20060;-77
2023/08/26 03:00:47;;;;;;;3.40;0.98;;;14.20;99.90;;;;;;4975488;28;20037;-78
2023/08/26 03:03:14;;;;;;;3.25;1.40;;;14.10;99.90;;;;;;4994045;28;20436;-78
2023/08/26 03:05:41;;;;;;;1.15;1.05;;;14.10;99.90;;;;;;4978506;28;20458;-77
2023/08/26 03:08:07;;;;;;;0.30;0.20;;;14.10;99.90;;;;;;4998890;28;20022;-78
2023/08/26 03:10:33;;;;;;;2.22;1.85;;;14.20;99.90;;;;;;4998056;28;20030;-78
2023/08/26 03:12:59;;;;;;;0.32;0.32;;;14.30;99.90;;;;;;5000658;28;20018;-78
2023/08/26 03:15:29;;;;;;;1.55;1.02;;;14.10;99.90;;;;;;4998895;28;20089;-77
2023/08/26 03:17:56;;;;;;;1.00;1.00;;;14.10;99.90;;;;;;5001452;28;20475;-78
2023/08/26 03:20:23;;;;;;;0.52;0.52;;;14.20;99.90;;;;;;5005517;28;20083;-82
2023/08/26 03:22:49;;;;;;;0.30;0.30;;;14.30;99.90;;;;;;4992476;28;20383;-79
2023/08/26 03:25:17;;;;;;;0.75;0.43;;;14.20;99.90;;;;;;5007901;28;20033;-84
2023/08/26 03:27:43;;;;;;;9.75;3.13;;;14.20;99.90;;;;;;4992755;28;20066;-78
2023/08/26 03:30:10;;;;;;;0.28;0.28;;;14.10;99.90;;;;;;4996946;28;20058;-80
2023/08/26 03:32:36;;;;;;;8.98;1.75;;;14.20;99.90;;;;;;4981546;28;20505;-78
2023/08/26 03:35:02;;;;;;;0.38;0.38;;;14.20;99.90;;;;;;5002083;28;20037;-80
2023/08/26 03:37:30;;;;;;;0.40;0.40;;;14.10;99.90;;;;;;4981931;28;20022;-80
2023/08/26 03:39:56;;;;;;;0.40;0.40;;;14.10;99.90;;;;;;4980614;28;20501;-80
2023/08/26 03:42:22;;;;;;;0.43;0.43;;;14.20;99.90;;;;;;4985585;28;20027;-80
2023/08/26 03:44:47;;;;;;;0.10;0.10;;;14.10;99.90;;;;;;4987055;28;20380;-81
2023/08/26 03:47:13;;;;;;;0.30;0.30;;;14.10;99.90;;;;;;5009952;28;20076;-81
2023/08/26 03:49:39;;;;;;;0.30;0.30;;;14.10;99.90;;;;;;5008591;28;20018;-79
2023/08/26 03:52:05;;;;;;;0.45;0.45;;;14.10;99.90;;;;;;5010009;28;20030;-78
2023/08/26 03:54:31;;;;;;;1.17;0.95;;;14.20;99.90;;;;;;5027212;28;20034;-78
2023/08/26 03:56:57;;;;;;;0.45;0.45;;;14.20;99.90;;;;;;5010638;28;20036;-80
2023/08/26 03:59:23;;;;;;;0.95;0.75;;;14.30;99.90;;;;;;5008789;28;20394;-78
2023/08/26 04:01:50;;;;;;;0.10;0.10;;;14.10;99.90;;;;;;5008565;28;20032;-78
2023/08/26 04:04:16;;;;;;;0.10;0.10;;;14.10;99.90;;;;;;5007132;28;20109;-78
2023/08/26 04:06:42;;;;;;;0.40;0.40;;;14.20;99.90;;;;;;5009516;28;20025;-78
2023/08/26 04:09:08;;;;;;;0.57;0.57;;;14.20;99.90;;;;;;5007660;28;20025;-78
2023/08/26 04:11:34;;;;;;;0.03;0.03;;;14.30;99.90;;;;;;4991941;28;20029;-79
2023/08/26 04:14:01;;;;;;;0.75;0.57;;;14.20;99.90;;;;;;5009907;28;20435;-78
2023/08/26 04:16:28;;;;;;;0.80;0.80;;;14.10;99.90;;;;;;5008927;28;20069;-78
2023/08/26 04:18:54;;;;;;;1.98;1.13;;;14.00;99.90;;;;;;5010980;28;20481;-81
2023/08/26 04:21:20;;;;;;;2.28;2.03;;;14.00;99.90;;;;;;4992673;28;20075;-78
2023/08/26 04:23:46;;;;;;;0.60;0.60;;;14.00;99.90;;;;;;4994030;28;20053;-81
2023/08/26 04:26:12;;;;;;;0.10;0.10;;;14.00;99.90;;;;;;4991923;28;20104;-78
2023/08/26 04:28:37;;;;;;;1.00;0.65;;;14.00;99.90;;;;;;5007323;28;20496;-79
2023/08/26 04:31:03;;;;;;;13.38;1.75;;;14.10;99.90;;;;;;5009218;28;20018;-79
2023/08/26 04:33:29;;;;;;;0.30;0.30;;;14.10;99.90;;;;;;5009304;28;20030;-78
2023/08/26 04:35:57;;;;;;;1.45;1.05;;;14.20;99.90;;;;;;4993109;28;20474;-78
2023/08/26 04:38:23;;;;;;;0.20;0.20;;;14.20;99.90;;;;;;4992779;28;20117;-78
2023/08/26 04:40:48;;;;;;;0.68;0.68;;;14.30;99.90;;;;;;4994048;28;20061;-79
2023/08/26 04:43:14;;;;;;;0.40;0.40;;;14.30;99.90;;;;;;4985912;28;20395;-79
2023/08/26 04:45:40;;;;;;;1.08;0.43;;;14.20;99.90;;;;;;4989170;28;20026;-80
2023/08/26 04:48:07;;;;;;;0.10;0.10;;;14.10;99.90;;;;;;5008853;28;20470;-79
2023/08/26 04:50:34;;;;;;;0.10;0.10;;;14.10;99.90;;;;;;4994977;28;20034;-81
2023/08/26 04:53:01;;;;;;;1.35;0.70;;;14.20;99.90;;;;;;4978106;28;20022;-79
2023/08/26 04:55:26;;;;;;;1.20;0.95;;;14.20;99.90;;;;;;4980808;28;20038;-82
2023/08/26 04:57:53;;;;;;;0.57;0.32;;;14.20;99.90;;;;;;5015574;28;20018;-79
2023/08/26 05:00:19;;;;;;;3.78;0.85;;;14.00;99.90;;;;;;4993021;28;20151;-78
2023/08/26 05:02:45;;;;;;;22.90;2.92;;;14.00;99.90;;;;;;4993931;28;20021;-78
2023/08/26 05:05:11;;;;;;;0.22;0.22;;;14.20;99.90;;;;;;4992460;28;20017;-79
2023/08/26 05:07:37;;;;;;;20.13;1.25;;;14.40;99.90;;;;;;4977864;28;20037;-80
2023/08/26 05:10:03;;;;;;;1.00;0.90;;;14.30;99.90;;;;;;4992071;28;20382;-79
2023/08/26 05:12:31;;;;;;;0.40;0.40;;;14.30;99.90;;;;;;4996518;28;20081;-80
2023/08/26 05:14:57;;;;;;;1.00;0.57;;;14.20;99.90;;;;;;4994743;28;20080;-78
2023/08/26 05:17:23;;;;;;;0.77;0.77;;;14.30;99.90;;;;;;4995910;28;20033;-77
2023/08/26 05:19:50;;;;;;;3.58;0.93;;;14.30;99.90;;;;;;5004299;28;20066;-79
2023/08/26 05:22:16;;;;;;;1.45;0.57;;;14.30;99.90;;;;;;5013203;28;20079;-83
2023/08/26 05:24:41;;;;;;;1.05;0.98;;;14.40;99.90;;;;;;5008648;28;20161;-79
2023/08/26 05:27:07;;;;;;;0.15;0.15;;;14.40;99.90;;;;;;4986389;28;20480;-80
2023/08/26 05:29:33;;;;;;;0.20;0.20;;;14.50;99.90;;;;;;4994511;28;20544;-78
2023/08/26 05:32:00;;;;;;;1.10;0.80;;;14.60;99.90;;;;;;5007914;28;20019;-80
2023/08/26 05:34:26;;;;;;;1.45;0.82;;;14.60;99.90;;;;;;5008101;28;20037;-78
2023/08/26 05:36:52;;;;;;;6.45;1.27;;;14.70;99.90;;;;;;5012328;28;20021;-80
2023/08/26 05:39:19;;;;;;;0.35;0.20;;;14.60;99.90;;;;;;5010080;28;20056;-84
2023/08/26 05:41:45;;;;;;;0.25;0.25;;;14.70;99.90;;;;;;5013249;28;20443;-84
2023/08/26 05:44:11;;;;;;;0.13;0.13;;;14.70;99.90;;;;;;5009653;28;20479;-80
2023/08/26 05:46:37;;;;;;;0.68;0.55;;;14.80;99.90;;;;;;5010310;28;20049;-80
2023/08/26 05:49:03;;;;;;;1.58;1.00;;;14.70;99.90;;;;;;5012466;28;20026;-80
2023/08/26 05:51:29;;;;;;;1.48;0.98;;;14.80;99.90;;;;;;5011976;28;20029;-80
2023/08/26 05:53:57;;;;;;;0.30;0.30;;;14.80;99.90;;;;;;5012973;28;20022;-82
2023/08/26 05:56:23;;;;;;;3.10;1.17;;;15.00;99.90;;;;;;5005180;28;20038;-81
2023/08/26 05:58:49;;;;;;;3.10;0.77;;;15.00;99.90;;;;;;4994642;28;20038;-80
2023/08/26 06:01:16;;;;;;;1.00;0.88;;;14.90;99.90;;;;;;5006696;28;20030;-81
2023/08/26 06:03:45;;;;;;;0.30;0.30;;;15.00;99.90;;;;;;5001888;28;20027;-81
2023/08/26 06:06:11;;;;;;;0.70;0.35;;;15.00;99.90;;;;;;4994273;28;20042;-82
2023/08/26 06:08:37;;;;;;;0.10;0.10;;;15.10;99.90;;;;;;5010640;28;20061;-80
2023/08/26 06:11:03;;;;;;;0.43;0.43;;;15.20;99.90;;;;;;5023949;28;20045;-81
2023/08/26 06:13:30;;;;;;;0.55;0.55;;;15.30;99.90;;;;;;4992933;28;20034;-80
2023/08/26 06:15:58;;;;;;;0.50;0.30;;;15.40;99.90;;;;;;4994018;28;20030;-80
2023/08/26 06:18:25;;;;;;;4.93;1.00;;;15.40;99.90;;;;;;5005297;28;20033;-80
2023/08/26 06:20:52;;;;;;;0.20;0.20;;;15.40;99.90;;;;;;4993349;28;20041;-81
2023/08/26 06:23:18;;;;;;;0.60;0.45;;;15.50;99.90;;;;;;5009697;28;20026;-79
2023/08/26 06:25:55;;;;;;;1.85;1.08;;;15.40;99.90;;;;;;4978518;28;20060;-79
2023/08/26 06:28:24;;;;;;;0.20;0.15;;;15.50;99.90;;;;;;4988691;28;20222;-79
2023/08/26 06:30:50;;;;;;;1.38;0.75;;;15.60;99.90;;;;;;4990062;28;20168;-79
2023/08/26 06:33:17;;;;;;;2.13;0.70;;;15.60;99.90;;;;;;4983916;28;20120;-77
2023/08/26 06:35:47;;;;;;;1.42;0.13;;;15.70;99.90;;;;;;5007782;28;20503;-79
2023/08/26 06:38:13;;;;;;;0.57;0.57;;;15.80;99.90;;;;;;4999201;28;20022;-78
2023/08/26 06:40:39;;;;;;;1.30;0.70;;;15.90;99.90;;;;;;4980287;28;20458;-78
2023/08/26 06:43:05;;;;;;;0.52;0.35;;;15.70;99.90;;;;;;4998543;28;20036;-78
2023/08/26 06:45:34;;;;;;;0.80;0.68;;;15.70;99.90;;;;;;4978298;28;20028;-78
2023/08/26 06:48:03;;;;;;;0.10;0.10;;;15.90;99.90;;;;;;4993732;28;20018;-78
2023/08/26 06:50:29;;;;;;;0.50;0.45;;;16.00;99.90;;;;;;4967807;28;20050;-79
2023/08/26 06:52:55;;;;;;;1.42;0.75;;;15.90;99.90;;;;;;4972111;28;20030;-78
2023/08/26 06:55:21;;;;;;;7.30;0.57;;;15.90;99.90;;;;;;5010321;28;20514;-78
2023/08/26 06:57:46;;;;;;;0.30;0.30;;;15.90;99.90;;;;;;5000133;28;20017;-79
2023/08/26 07:00:13;;;;;;;0.10;0.10;;;16.00;99.90;;;;;;5002756;28;20073;-79
2023/08/26 07:02:39;;;;;;;4.57;0.80;;;16.20;99.90;;;;;;4994545;28;20026;-78
2023/08/26 07:05:05;;;;;;;0.40;0.40;;;16.20;99.90;;;;;;5006087;28;20051;-78
2023/08/26 07:07:31;;;;;;;1.45;0.90;;;16.20;99.90;;;;;;4998256;28;20034;-79
2023/08/26 07:09:57;;;;;;;4.97;0.77;;;16.30;99.90;;;;;;4993513;28;20318;-78
2023/08/26 07:12:23;;;;;;;0.30;0.25;;;16.30;99.90;;;;;;4994684;28;20058;-78
2023/08/26 07:14:49;;;;;;;1.58;0.55;;;16.40;99.90;;;;;;4978654;28;20034;-78
2023/08/26 07:17:17;;;;;;;0.77;0.70;;;16.50;99.90;;;;;;4984168;28;20397;-78
2023/08/26 07:19:43;;;;;;;0.75;0.38;;;16.50;99.90;;;;;;4998512;28;20034;-78
2023/08/26 07:22:09;;;;;;;2.88;0.52;;;16.50;99.90;;;;;;4966276;28;20027;-77
2023/08/26 07:24:35;;;;;;;2.40;0.73;;;16.80;99.90;;;;;;4990410;28;20029;-80
2023/08/26 07:27:01;;;;;;;4.18;1.10;;;16.70;99.90;;;;;;4988350;28;20026;-79
2023/08/26 07:29:27;;;;;;;0.40;0.40;;;16.70;99.90;;;;;;4992614;28;20542;-78
2023/08/26 07:31:53;;;;;;;3.40;0.68;;;16.70;99.90;;;;;;4973535;28;20049;-80
2023/08/26 07:34:18;;;;;;;0.28;0.28;;;16.70;99.90;;;;;;4986175;28;20510;-79
2023/08/26 07:36:44;;;;;;;0.40;0.40;;;16.80;99.90;;;;;;4999280;28;20107;-79
2023/08/26 07:39:10;;;;;;;1.25;0.65;;;17.10;99.90;;;;;;4986531;28;20070;-79
2023/08/26 07:41:36;;;;;;;1.20;0.32;;;17.00;99.90;;;;;;4966551;28;20387;-77
2023/08/26 07:44:03;;;;;;;0.52;0.35;;;16.90;99.90;;;;;;4966715;28;20026;-79
2023/08/26 07:46:28;;;;;;;0.22;0.20;;;17.10;99.90;;;;;;4988036;28;20468;-78
2023/08/26 07:48:54;;;;;;;0.47;0.47;;;17.00;99.90;;;;;;4984746;28;20164;-77
2023/08/26 07:51:20;;;;;;;0.60;0.60;;;16.80;99.90;;;;;;4984283;28;20106;-79
2023/08/26 07:53:46;;;;;;;0.55;0.35;;;17.00;99.90;;;;;;4987155;28;20106;-78
2023/08/26 07:56:12;;;;;;;4.68;0.63;;;17.10;99.90;;;;;;4986914;28;20491;-79
2023/08/26 07:58:37;;;;;;;0.95;0.52;;;17.10;99.90;;;;;;4989511;28;20485;-81
2023/08/26 08:01:03;;;;;;;1.08;0.45;;;17.30;99.90;;;;;;4995977;28;20053;-79
2023/08/26 08:03:29;;;;;;;0.00;0.00;;;17.40;99.90;;;;;;5001375;28;20101;-78
2023/08/26 08:05:55;;;;;;;3.75;0.52;;;17.40;99.90;;;;;;4989166;28;20018;-80
2023/08/26 08:08:21;;;;;;;0.55;0.38;;;17.60;99.90;;;;;;4973270;28;20390;-79
2023/08/26 08:10:46;;;;;;;0.00;0.00;;;17.60;99.90;;;;;;4989334;28;20034;-80
2023/08/26 08:13:12;;;;;;;0.15;0.15;;;17.90;99.90;;;;;;4995587;28;20033;-79
2023/08/26 08:15:38;;;;;;;0.75;0.45;;;17.60;99.90;;;;;;4977056;28;20072;-80
2023/08/26 08:18:04;;;;;;;2.10;0.68;;;17.40;99.90;;;;;;4998398;28;20022;-79
2023/08/26 08:20:30;;;;;;;3.88;0.38;;;17.50;99.90;;;;;;5006464;28;20473;-79
2023/08/26 08:22:56;;;;;;;0.00;0.00;;;17.90;99.90;;;;;;5003296;28;20470;-80
2023/08/26 08:25:22;;;;;;;0.00;0.00;;;17.80;99.90;;;;;;5002875;28;20565;-79
2023/08/26 08:27:48;;;;;;;0.00;0.00;;;18.00;99.90;;;;;;5004871;28;20018;-79
2023/08/26 08:30:14;;;;;;;0.35;0.10;;;18.30;99.90;;;;;;4988493;28;20083;-79
2023/08/26 08:32:40;;;;;;;0.00;0.00;;;18.20;99.90;;;;;;5003440;28;20080;-80
2023/08/26 08:35:06;;;;;;;0.80;0.40;;;18.00;99.90;;;;;;4995921;28;20034;-79
2023/08/26 08:37:33;;;;;;;0.28;0.28;;;18.10;99.90;;;;;;5001125;28;20026;-79
2023/08/26 08:39:59;;;;;;;1.80;0.30;;;18.20;99.90;;;;;;5005634;28;20150;-79
2023/08/26 08:42:25;;;;;;;2.13;0.45;;;18.40;99.90;;;;;;4999230;28;20034;-79
2023/08/26 08:44:51;;;;;;;0.80;0.30;;;18.20;99.90;;;;;;4999852;28;20034;-78
2023/08/26 08:47:17;;;;;;;3.30;0.30;;;18.30;99.90;;;;;;5000317;28;20471;-78
2023/08/26 08:49:44;;;;;;;0.05;0.05;;;18.20;99.90;;;;;;4992472;28;20038;-78
2023/08/26 08:52:11;;;;;;;0.00;0.00;;;18.40;99.90;;;;;;4998827;28;20033;-78
2023/08/26 08:54:37;;;;;;;0.50;0.50;;;18.80;99.90;;;;;;5003268;28;20113;-81
2023/08/26 08:57:04;;;;;;;0.08;0.08;;;19.20;99.90;;;;;;4998592;28;20491;-79
2023/08/26 08:59:34;;;;;;;0.40;0.20;;;19.20;99.90;;;;;;4997008;28;20049;-79
2023/08/26 09:02:00;;;;;;;2.60;2.25;;;19.30;99.90;;;;;;4996644;28;20076;-78
2023/08/26 09:04:26;;;;;;;9.63;0.77;;;19.00;99.90;;;;;;5003988;28;20108;-79
2023/08/26 09:06:53;;;;;;;7.72;0.93;;;18.80;99.90;;;;;;5001043;28;20034;-78
2023/08/26 09:09:20;;;;;;;0.50;0.25;;;18.90;99.90;;;;;;5002805;28;20029;-79
2023/08/26 09:11:50;;;;;;;0.35;0.17;;;19.10;99.90;;;;;;5001021;28;20035;-79
2023/08/26 09:14:16;;;;;;;4.03;0.30;;;19.10;99.90;;;;;;4997560;28;20026;-79
2023/08/26 09:16:43;;;;;;;0.85;0.60;;;19.10;99.90;;;;;;5002729;28;20367;-79
2023/08/26 09:19:13;;;;;;;0.10;0.10;;;19.40;99.90;;;;;;5006841;28;20034;-78
2023/08/26 09:21:44;;;;;;;0.00;0.00;;;19.40;99.90;;;;;;4998098;28;20026;-79
2023/08/26 09:24:14;;;;;;;0.10;0.10;;;19.80;99.90;;;;;;4999413;28;20073;-79
2023/08/26 09:26:41;;;;;;;0.45;0.40;;;19.70;99.90;;;;;;4991106;28;20044;-78
2023/08/26 09:29:27;;;;;;;1.58;0.90;;;19.90;99.90;;;;;;4982752;28;20026;-80
2023/08/26 09:31:53;;;;;;;0.43;0.32;;;19.80;99.90;;;;;;4982588;28;20034;-79
2023/08/26 09:34:28;;;;;;;0.22;0.22;;;19.50;99.90;;;;;;4974466;28;20510;-79
2023/08/26 09:36:55;;;;;;;1.05;0.95;;;19.30;99.90;;;;;;4983983;28;20181;-79
2023/08/26 09:39:21;;;;;;;0.00;0.00;;;19.00;99.90;;;;;;4980425;28;20027;-79
2023/08/26 09:41:48;;;;;;;2.20;0.20;;;19.30;99.90;;;;;;4981184;28;20029;-79
2023/08/26 09:44:16;;;;;;;2.47;0.98;;;19.80;99.90;;;;;;4992506;28;20038;-80
2023/08/26 09:46:43;;;;;;;0.30;0.17;;;19.60;99.90;;;;;;4988069;28;20025;-79
2023/08/26 09:49:13;;;;;;;4.38;1.00;;;19.60;99.90;;;;;;4995700;28;20022;-79
2023/08/26 09:51:47;;;;;;;2.75;0.88;;;19.50;99.90;;;;;;4994062;28;20525;-79
2023/08/26 09:54:18;;;;;;;2.67;1.23;;;19.50;99.90;;;;;;4995396;28;20046;-79
2023/08/26 09:56:46;;;;;;;0.10;0.10;;;19.30;99.90;;;;;;4983767;28;20050;-79
2023/08/26 09:59:12;;;;;;;4.15;0.80;;;19.80;99.90;;;;;;4991823;28;20068;-79
2023/08/26 10:01:39;;;;;;;0.00;0.00;;;19.50;99.90;;;;;;4974693;28;20120;-80
2023/08/26 10:04:05;;;;;;;1.77;0.40;;;19.70;99.90;;;;;;4986329;28;20022;-79
2023/08/26 10:06:35;;;;;;;0.68;0.47;;;19.80;99.90;;;;;;4962483;28;20560;-81
2023/08/26 10:09:07;;;;;;;0.10;0.10;;;20.00;99.90;;;;;;4974069;28;20027;-79
2023/08/26 10:11:40;;;;;;;1.30;0.13;;;20.30;99.90;;;;;;5000219;28;20066;-79
2023/08/26 10:14:11;;;;;;;2.53;0.75;;;20.10;99.90;;;;;;4995056;28;20025;-80
2023/08/26 10:16:40;;;;;;;0.28;0.28;;;19.90;99.90;;;;;;4984515;28;20046;-79
2023/08/26 10:19:08;;;;;;;2.40;0.77;;;20.10;99.90;;;;;;4989873;28;20027;-81
2023/08/26 10:21:35;;;;;;;2.53;0.93;;;20.10;99.90;;;;;;4993507;28;20467;-80
2023/08/26 10:24:02;;;;;;;0.30;0.30;;;20.30;99.90;;;;;;4997590;28;20037;-80
2023/08/26 10:26:28;;;;;;;2.40;1.02;;;20.60;99.90;;;;;;4993843;28;20105;-80
2023/08/26 10:28:55;;;;;;;0.35;0.20;;;20.40;99.90;;;;;;4988026;28;20053;-82
2023/08/26 10:31:30;;;;;;;0.75;0.40;;;20.70;99.90;;;;;;4986202;28;20023;-79
2023/08/26 10:34:07;;;;;;;1.50;0.65;;;21.10;99.90;;;;;;4951378;28;20085;-78
2023/08/26 10:36:35;;;;;;;3.08;0.25;;;21.00;99.90;;;;;;4993058;28;20034;-79
2023/08/26 10:39:02;;;;;;;2.20;0.95;;;20.90;99.90;;;;;;4987884;28;20034;-80
2023/08/26 10:41:29;;;;;;;1.30;0.55;;;21.00;99.90;;;;;;4978398;28;20475;-80
2023/08/26 10:43:58;;;;;;;15.48;1.73;;;21.00;99.90;;;;;;4997994;28;20030;-80
2023/08/26 10:46:54;;;;;;;2.22;0.68;;;20.70;99.90;;;;;;4984697;28;20031;-80
2023/08/26 10:49:28;;;;;;;0.30;0.30;;;20.70;99.90;;;;;;4988629;28;20043;-79
2023/08/26 10:52:17;;;;;;;0.25;0.25;;;20.70;99.90;;;;;;4988840;28;20026;-80
2023/08/26 10:54:46;;;;;;;0.00;0.00;;;20.50;99.90;;;;;;4975587;28;20042;-80
2023/08/26 10:57:13;;;;;;;0.52;0.40;;;20.40;99.90;;;;;;4980654;28;20121;-80
2023/08/26 10:59:42;;;;;;;0.85;0.73;;;21.00;99.90;;;;;;4987781;28;20068;-80
2023/08/26 11:02:11;;;;;;;0.10;0.10;;;21.20;99.90;;;;;;4982401;28;20122;-78
2023/08/26 11:04:44;;;;;;;0.85;0.43;;;21.70;99.90;;;;;;4974712;28;20031;-80
2023/08/26 11:07:20;;;;;;;0.47;0.10;;;21.30;99.90;;;;;;4988178;28;20032;-80
2023/08/26 11:09:46;;;;;;;1.35;0.40;;;21.30;99.90;;;;;;4976545;28;20097;-80
2023/08/26 11:12:24;;;;;;;0.25;0.20;;;21.20;99.90;;;;;;4976803;28;20045;-79
2023/08/26 11:14:50;;;;;;;0.55;0.45;;;20.70;99.90;;;;;;4964080;28;20042;-81
2023/08/26 11:17:18;;;;;;;0.45;0.40;;;20.70;99.90;;;;;;4993675;28;20033;-80
2023/08/26 11:19:44;;;;;;;0.47;0.28;;;20.80;99.90;;;;;;4993969;28;20081;-80
2023/08/26 11:22:11;;;;;;;0.00;0.00;;;21.10;99.90;;;;;;4973230;28;20093;-79
2023/08/26 11:24:37;;;;;;;0.52;0.52;;;21.60;99.90;;;;;;4990322;28;20472;-79
2023/08/26 11:27:03;;;;;;;0.30;0.30;;;21.70;99.90;;;;;;4973159;28;20027;-80
2023/08/26 11:29:29;;;;;;;6.72;0.52;;;21.50;99.90;;;;;;4989482;28;20074;-79
2023/08/26 11:31:55;;;;;;;0.10;0.10;;;21.00;99.90;;;;;;4972915;28;20392;-80
2023/08/26 11:34:24;;;;;;;0.60;0.40;;;20.90;99.90;;;;;;4987803;28;20034;-79
2023/08/26 11:36:53;;;;;;;0.22;0.10;;;21.10;99.90;;;;;;4993506;28;20037;-79
2023/08/26 11:39:20;;;;;;;0.17;0.17;;;21.10;99.90;;;;;;4972956;28;20023;-80
2023/08/26 11:41:46;;;;;;;0.00;0.00;;;21.40;99.90;;;;;;4992338;28;20050;-80
2023/08/26 11:44:15;;;;;;;0.00;0.00;;;21.90;99.90;;;;;;4993758;28;20014;-80
2023/08/26 11:46:42;;;;;;;0.55;0.43;;;22.10;99.90;;;;;;4993157;28;20025;-80
2023/08/26 11:49:11;;;;;;;0.20;0.20;;;21.90;99.90;;;;;;4993496;28;20044;-80
2023/08/26 11:51:41;;;;;;;0.05;0.05;;;22.00;99.90;;;;;;4991567;28;20140;-80
2023/08/26 11:54:24;;;;;;;0.28;0.28;;;22.20;99.90;;;;;;4991608;28;20374;-80
2023/08/26 11:56:50;;;;;;;0.15;0.15;;;22.10;99.90;;;;;;4991249;28;20050;-81
2023/08/26 11:59:22;;;;;;;0.20;0.20;;;22.50;99.90;;;;;;4991234;28;20023;-79
2023/08/26 12:01:48;;;;;;;1.25;0.38;;;22.30;99.90;;;;;;4971626;28;20113;-79
2023/08/26 12:04:15;;;;;;;0.00;0.00;;;22.30;99.90;;;;;;4991722;28;20469;-79
2023/08/26 12:06:42;;;;;;;1.55;0.80;;;21.80;99.90;;;;;;4993120;28;20022;-80
2023/08/26 12:09:08;;;;;;;1.40;0.60;;;21.80;99.90;;;;;;4975879;28;20026;-78
2023/08/26 12:11:37;;;;;;;0.13;0.13;;;21.50;99.90;;;;;;4993406;28;20435;-80
2023/08/26 12:14:19;;;;;;;0.25;0.25;;;21.30;99.90;;;;;;4972906;28;20026;-80
2023/08/26 12:16:45;;;;;;;0.40;0.15;;;21.40;99.90;;;;;;4992974;28;20064;-80
2023/08/26 12:19:18;;;;;;;0.10;0.10;;;21.60;99.90;;;;;;4976764;28;20035;-79
2023/08/26 12:21:50;;;;;;;0.73;0.43;;;21.80;99.90;;;;;;4991904;28;20038;-80
2023/08/26 12:24:21;;;;;;;1.42;0.47;;;21.40;99.90;;;;;;4992116;28;20031;-80
2023/08/26 12:26:47;;;;;;;2.03;0.20;;;21.10;99.90;;;;;;4992986;28;20029;-80
2023/08/26 12:29:13;;;;;;;0.10;0.10;;;21.20;99.90;;;;;;4992863;28;20379;-80
2023/08/26 12:31:39;;;;;;;0.22;0.22;;;21.40;99.90;;;;;;4993189;28;20379;-80
2023/08/26 12:34:05;;;;;;;2.13;0.20;;;21.50;99.90;;;;;;4993813;28;20233;-79
2023/08/26 12:36:30;;;;;;;0.52;0.45;;;21.50;99.90;;;;;;4989003;28;20439;-80
2023/08/26 12:38:56;;;;;;;0.10;0.10;;;21.50;99.90;;;;;;4982727;28;20026;-80
2023/08/26 12:41:22;;;;;;;0.20;0.10;;;22.40;99.90;;;;;;4992776;28;20490;-80
2023/08/26 12:43:50;;;;;;;1.25;0.40;;;23.00;99.90;;;;;;4992713;28;20375;-80
2023/08/26 12:46:16;;;;;;;0.68;0.30;;;22.20;99.90;;;;;;4993358;28;20394;-80